Pagrindinis puslapis
METAR-TAF:

METAR-TAF

Oro uostai :

Gardinas, Baltarusija

platuma: 53-36-06N, ilguma: 024-03-18E, Aukštis: 135 m

Dabartinis oras

Ataskaita buvo paskelbta 21 minutes, ne 08:30 UTC
Vėjas 6 kt iš Pietų
Temperatūra 14°C
Drėgmė 67%
Slėgis 1016 hPa
Matomumas 10 km arba daugiau
nėra debesų žemiau 1500 m ir nėra kamuolinių lietaus debesų

METAR: UMMG 180830Z 19003MPS CAVOK 14/08 Q1016 R17/CLRD// NOSIG

Laikas: 11:51 (08:51 UTC)

Prognozė

Ataskaita buvo paskelbta 51 minutes, ne 08:00 UTC
Prognozė galioja nuo 18 metu 09 UTC su 18 metu 18 UTC
Vėjas 10 kt iš Pietų
Matomumas 10 km arba daugiau
Išsisklaidę debesys ne aukštis 3000 ft
Laikinai
nuo 18 metu 09 UTC su 18 metu 15 UTC
Vėjas 8 kt iš Pietų su gūsio iki 17 kt

TAF: UMMG 180800Z 1809/1818 18005MPS 9999 SCT030 TEMPO 1809/1815 17004G09MPS

Orai ataskaitas ir orų prognozės (METAR, TAF).

turimą stotys yra geltonos ir raudonos taškus žemėlapyje.

Perkelti pele per norėdami pamatyti stoties vardą.

Tada spustelėkite, norėdami matyti oro stebėjimo ir prognozės.

Norėdami pakeisti žemėlapį: spustelėkite ant žalios mygtukų su juodo kryžiaus žemyn,; žalią mygtuką su brūkšneliu, jei norite nutolinti; arba žalių rodyklių gretimoms žemėlapius.


METAR-TAF: